Kezdőlap
METAR-TAF:

METAR-TAF

Repülőterek :

Treviso, Olaszország

földrajzi szélesség: 45-41N, földrajzi hosszúság: 012-06E, magasság: 45 m

Jelenlegi meteorológiai megfigyelések

A jelentés 33 perccel ezelõtt készült, 12:55 UTC
Hőmérséklet 14°C
Páratartalom 77%
Légköri nyomás 1023 hPa
Látótávolság: 7000 m
Kevés felhő 2500 lábon

METAR: LIPS 181255Z /////KT 7000 FEW025 14/10 Q1023 RMK FEW VIS MIN 7000 WIND THR26 05005KT WIND THR08 09005KT WHT

Idő: 14:28 (13:28 UTC)

Előrejelzés

A jelentés 2 órával és 28 perccel ezelõtt készült, 11:00 UTC
Az előrejelzés 18-én 12 óra UTC és 18-én 21 óra UTC között érvényes
Északkeleti szél 8 kt
Látótávolság: 5000 m
Szórványos felhőzet 3000 lábon
Szórványos felhőzet 7000 lábon
Párásság
18-én 12 óra UTC és 18-én 15 óra UTC között ideiglenes
Látótávolság: 8000 m

TAF: LIPS 181100Z 1812/1821 04008KT 5000 BR SCT030 SCT070 TEMPO 1812/1815 8000

Meteorológiai megfigyelések és előrejelzések több, mint 4000 repülőtéren (METAR és TAF jelentéseket).

A térképen piros és sárga pontok jelzik az elérhető meteorológiai állomásokat.

Mozgassa az egeret a pont fölött, hogy megjelenjen az állomás neve.

Azután kattintson az időjárási megfigyelések és előrejelzések megtekintéséhez.

A térkép megváltoztatása: kattintson a fekete keresztel jelölt zöld gombra ráközelítéshez, a vonallal jelölt zöld gombra távolításhoz, vagy a zöld nyilakra a szomszédos térképek eléréséhez.


METAR-TAF: